Portada
METAR-TAF:

METAR-TAF

Aeroports :

Mackinac Island Airport

Mackinac Island, Michigan, Estats Units d'Amèrica

latitud: 45-51-54N, longitud: 084-38-14W, altitud: 226 m

Observació

L'informe es va fer fa 12 minuts, a les 01:55 UTC
Vent 6 kt del Sud/Sud-Est
Temperatura 18°C
Humitat 88%
Pressió 1014 hPa
Visibilitat: 16.1 km
Cel clar

METAR: KMCD 280155Z AUTO 15006KT 10SM CLR 18/16 A2993 RMK AO2 T01840159

Hora: 22:07 (02:07 UTC)


TAF: manca

Observacions i pronòstics meteorològics de més de 4000 aeroports (METAR i TAF).

Les estacions disponibles són els punts grocs i vermells al mapa.

Posi el ratolí al punt desitjat per veure el nom de l'estació.

Feu clic per veure les observacions i els pronòstics meteorològics.

Per canviar el mapa: feu clic els botons verds amb una creu de color negre per apropar; al botó verd amb un guió per allunyar la imatge; o en les fletxes verdes per a mapes adjacents.


METAR-TAF: